sensor_id;sensor_type;location;lat;lon;timestamp;pressure;altitude;pressure_sealevel;temperature;humidity
36192;BME280;22233;42.708;23.360;2023-02-01T00:01:36;95491.63;;;1.71;72.31
36192;BME280;22233;42.708;23.360;2023-02-01T00:04:02;95506.03;;;1.59;72.38
36192;BME280;22233;42.708;23.360;2023-02-01T00:06:27;95509.06;;;1.41;72.88
36192;BME280;22233;42.708;23.360;2023-02-01T00:08:53;95504.19;;;1.65;72.75
36192;BME280;22233;42.708;23.360;2023-02-01T00:11:19;95498.38;;;1.73;71.61
36192;BME280;22233;42.708;23.360;2023-02-01T00:13:45;95510.13;;;1.72;72.77
36192;BME280;22233;42.708;23.360;2023-02-01T00:16:11;95506.13;;;1.75;71.86
36192;BME280;22233;42.708;23.360;2023-02-01T00:18:41;95505.25;;;1.96;71.35
36192;BME280;22233;42.708;23.360;2023-02-01T00:21:07;95508.00;;;1.74;72.79
36192;BME280;22233;42.708;23.360;2023-02-01T00:23:33;95497.81;;;1.71;73.07
36192;BME280;22233;42.708;23.360;2023-02-01T00:26:13;95509.03;;;2.00;71.57
36192;BME280;22233;42.708;23.360;2023-02-01T00:28:39;95501.06;;;2.06;71.14
36192;BME280;22233;42.708;23.360;2023-02-01T00:31:05;95483.81;;;1.64;73.15
36192;BME280;22233;42.708;23.360;2023-02-01T00:33:32;95505.03;;;1.71;71.67
36192;BME280;22233;42.708;23.360;2023-02-01T00:35:58;95505.56;;;1.68;72.08
36192;BME280;22233;42.708;23.360;2023-02-01T00:38:26;95497.38;;;1.52;72.67
36192;BME280;22233;42.708;23.360;2023-02-01T00:40:51;95493.44;;;1.60;72.92
36192;BME280;22233;42.708;23.360;2023-02-01T00:43:16;95476.44;;;1.76;71.18
36192;BME280;22233;42.708;23.360;2023-02-01T00:45:42;95487.78;;;1.56;71.67
36192;BME280;22233;42.708;23.360;2023-02-01T00:48:07;95490.06;;;1.75;70.10
36192;BME280;22233;42.708;23.360;2023-02-01T00:50:33;95483.97;;;1.52;72.25
36192;BME280;22233;42.708;23.360;2023-02-01T00:52:58;95498.44;;;1.51;71.61
36192;BME280;22233;42.708;23.360;2023-02-01T00:55:25;95465.78;;;1.54;69.78
36192;BME280;22233;42.708;23.360;2023-02-01T00:57:50;95491.69;;;1.76;70.87
36192;BME280;22233;42.708;23.360;2023-02-01T01:00:16;95495.34;;;1.65;70.02
36192;BME280;22233;42.708;23.360;2023-02-01T01:02:41;95476.63;;;1.37;70.64
36192;BME280;22233;42.708;23.360;2023-02-01T01:05:07;95472.69;;;1.45;69.97
36192;BME280;22233;42.708;23.360;2023-02-01T01:07:33;95491.72;;;1.49;69.39
36192;BME280;22233;42.708;23.360;2023-02-01T01:09:58;95479.50;;;1.58;68.22
36192;BME280;22233;42.708;23.360;2023-02-01T01:12:24;95475.53;;;1.66;67.49
36192;BME280;22233;42.708;23.360;2023-02-01T01:14:49;95485.69;;;1.36;68.85
36192;BME280;22233;42.708;23.360;2023-02-01T01:17:15;95487.78;;;1.56;68.38
36192;BME280;22233;42.708;23.360;2023-02-01T01:19:41;95485.00;;;1.46;69.11
36192;BME280;22233;42.708;23.360;2023-02-01T01:22:06;95485.81;;;1.47;69.27
36192;BME280;22233;42.708;23.360;2023-02-01T01:24:32;95461.00;;;1.56;67.53
36192;BME280;22233;42.708;23.360;2023-02-01T01:26:57;95457.38;;;1.40;67.60
36192;BME280;22233;42.708;23.360;2023-02-01T01:29:22;95461.78;;;1.57;67.21
36192;BME280;22233;42.708;23.360;2023-02-01T01:31:48;95472.66;;;1.72;67.10
36192;BME280;22233;42.708;23.360;2023-02-01T01:34:13;95486.97;;;1.88;66.13
36192;BME280;22233;42.708;23.360;2023-02-01T01:36:39;95475.41;;;1.83;67.02
36192;BME280;22233;42.708;23.360;2023-02-01T01:39:04;95480.56;;;1.89;65.82
36192;BME280;22233;42.708;23.360;2023-02-01T01:41:31;95485.47;;;1.65;65.13
36192;BME280;22233;42.708;23.360;2023-02-01T01:43:59;95484.13;;;1.68;65.87
36192;BME280;22233;42.708;23.360;2023-02-01T01:46:28;95486.00;;;1.67;65.36
36192;BME280;22233;42.708;23.360;2023-02-01T01:49:09;95496.28;;;1.80;65.76
36192;BME280;22233;42.708;23.360;2023-02-01T01:51:40;95502.78;;;1.30;65.90
36192;BME280;22233;42.708;23.360;2023-02-01T01:56:57;95484.66;;;1.37;65.34
36192;BME280;22233;42.708;23.360;2023-02-01T01:59:25;95488.19;;;1.43;65.50
36192;BME280;22233;42.708;23.360;2023-02-01T02:01:52;95467.19;;;1.30;65.38
36192;BME280;22233;42.708;23.360;2023-02-01T02:04:17;95490.72;;;1.28;65.57
36192;BME280;22233;42.708;23.360;2023-02-01T02:06:57;95486.00;;;1.40;64.61
36192;BME280;22233;42.708;23.360;2023-02-01T02:09:25;95491.00;;;1.58;63.97
36192;BME280;22233;42.708;23.360;2023-02-01T02:11:50;95468.75;;;1.26;65.38
36192;BME280;22233;42.708;23.360;2023-02-01T02:14:17;95478.66;;;1.25;65.21
36192;BME280;22233;42.708;23.360;2023-02-01T02:39:22;95483.56;;;1.33;65.16
36192;BME280;22233;42.708;23.360;2023-02-01T02:42:11;95486.75;;;1.08;65.68
36192;BME280;22233;42.708;23.360;2023-02-01T02:48:12;95468.88;;;0.87;67.27
36192;BME280;22233;42.708;23.360;2023-02-01T02:50:49;95460.69;;;0.98;65.56
36192;BME280;22233;42.708;23.360;2023-02-01T02:53:45;95475.91;;;0.93;66.77
36192;BME280;22233;42.708;23.360;2023-02-01T02:56:32;95474.91;;;0.55;68.22
36192;BME280;22233;42.708;23.360;2023-02-01T02:59:21;95470.47;;;0.88;69.06
36192;BME280;22233;42.708;23.360;2023-02-01T03:02:07;95450.56;;;0.78;68.13
36192;BME280;22233;42.708;23.360;2023-02-01T03:04:55;95482.16;;;1.04;67.61
36192;BME280;22233;42.708;23.360;2023-02-01T03:07:49;95489.28;;;0.93;68.26
36192;BME280;22233;42.708;23.360;2023-02-01T03:13:08;95494.00;;;0.86;66.64
36192;BME280;22233;42.708;23.360;2023-02-01T03:18:21;95482.53;;;0.90;66.23
36192;BME280;22233;42.708;23.360;2023-02-01T03:20:51;95462.59;;;0.76;66.35
36192;BME280;22233;42.708;23.360;2023-02-01T03:23:21;95499.09;;;0.87;66.08
36192;BME280;22233;42.708;23.360;2023-02-01T03:25:49;95484.94;;;0.87;66.24
36192;BME280;22233;42.708;23.360;2023-02-01T03:28:17;95518.84;;;0.86;66.58
36192;BME280;22233;42.708;23.360;2023-02-01T03:30:47;95497.75;;;0.85;67.37
36192;BME280;22233;42.708;23.360;2023-02-01T03:33:19;95503.69;;;0.92;66.63
36192;BME280;22233;42.708;23.360;2023-02-01T03:39:03;95508.94;;;1.31;66.29
36192;BME280;22233;42.708;23.360;2023-02-01T03:41:50;95510.28;;;1.06;66.02
36192;BME280;22233;42.708;23.360;2023-02-01T03:44:26;95505.97;;;1.27;65.74
36192;BME280;22233;42.708;23.360;2023-02-01T03:47:16;95503.31;;;1.05;65.21
36192;BME280;22233;42.708;23.360;2023-02-01T03:50:07;95501.41;;;1.28;64.91
36192;BME280;22233;42.708;23.360;2023-02-01T03:52:45;95510.97;;;1.46;64.70
36192;BME280;22233;42.708;23.360;2023-02-01T03:55:16;95513.50;;;1.57;63.76
36192;BME280;22233;42.708;23.360;2023-02-01T03:57:55;95511.47;;;1.70;63.86
36192;BME280;22233;42.708;23.360;2023-02-01T04:00:24;95506.69;;;1.77;64.35
36192;BME280;22233;42.708;23.360;2023-02-01T04:02:50;95511.00;;;1.78;63.56
36192;BME280;22233;42.708;23.360;2023-02-01T04:05:16;95501.34;;;1.77;62.56
36192;BME280;22233;42.708;23.360;2023-02-01T04:07:42;95515.56;;;1.50;63.91
36192;BME280;22233;42.708;23.360;2023-02-01T04:10:09;95484.16;;;1.13;64.81
36192;BME280;22233;42.708;23.360;2023-02-01T04:12:35;95494.28;;;1.11;64.13
36192;BME280;22233;42.708;23.360;2023-02-01T04:15:00;95502.94;;;1.46;64.13
36192;BME280;22233;42.708;23.360;2023-02-01T04:17:26;95499.50;;;1.50;63.86
36192;BME280;22233;42.708;23.360;2023-02-01T04:19:51;95513.50;;;1.57;63.06
36192;BME280;22233;42.708;23.360;2023-02-01T04:22:17;95504.84;;;1.50;63.64
36192;BME280;22233;42.708;23.360;2023-02-01T04:24:42;95507.22;;;1.74;63.42
36192;BME280;22233;42.708;23.360;2023-02-01T04:27:08;95501.00;;;1.68;62.65
36192;BME280;22233;42.708;23.360;2023-02-01T04:29:33;95508.25;;;1.73;62.64
36192;BME280;22233;42.708;23.360;2023-02-01T04:31:59;95515.19;;;1.69;63.54
36192;BME280;22233;42.708;23.360;2023-02-01T04:34:24;95508.44;;;1.61;65.31
36192;BME280;22233;42.708;23.360;2023-02-01T04:36:50;95512.19;;;1.60;63.76
36192;BME280;22233;42.708;23.360;2023-02-01T04:39:16;95503.34;;;1.59;63.94
36192;BME280;22233;42.708;23.360;2023-02-01T04:41:42;95490.81;;;1.38;63.92
36192;BME280;22233;42.708;23.360;2023-02-01T04:44:13;95511.13;;;1.61;64.29
36192;BME280;22233;42.708;23.360;2023-02-01T04:46:39;95491.56;;;1.60;63.83
36192;BME280;22233;42.708;23.360;2023-02-01T04:49:04;95504.53;;;1.74;64.14
36192;BME280;22233;42.708;23.360;2023-02-01T04:51:30;95488.00;;;1.55;64.12
36192;BME280;22233;42.708;23.360;2023-02-01T04:53:55;95490.25;;;1.36;64.71
36192;BME280;22233;42.708;23.360;2023-02-01T04:56:21;95513.63;;;1.73;64.20
36192;BME280;22233;42.708;23.360;2023-02-01T04:58:46;95501.38;;;1.82;63.78
36192;BME280;22233;42.708;23.360;2023-02-01T05:01:12;95506.97;;;1.75;64.38
36192;BME280;22233;42.708;23.360;2023-02-01T05:03:37;95519.44;;;1.97;64.30
36192;BME280;22233;42.708;23.360;2023-02-01T05:06:03;95520.13;;;1.82;64.78
36192;BME280;22233;42.708;23.360;2023-02-01T05:08:30;95526.66;;;1.64;66.23
36192;BME280;22233;42.708;23.360;2023-02-01T05:10:55;95505.59;;;1.18;67.35
36192;BME280;22233;42.708;23.360;2023-02-01T05:13:21;95536.22;;;1.28;68.34
36192;BME280;22233;42.708;23.360;2023-02-01T05:16:05;95536.41;;;1.48;68.29
36192;BME280;22233;42.708;23.360;2023-02-01T05:18:30;95526.63;;;1.32;69.59
36192;BME280;22233;42.708;23.360;2023-02-01T05:20:56;95550.63;;;1.27;68.95
36192;BME280;22233;42.708;23.360;2023-02-01T05:23:21;95532.63;;;1.44;67.55
36192;BME280;22233;42.708;23.360;2023-02-01T05:25:47;95524.50;;;1.34;68.65
36192;BME280;22233;42.708;23.360;2023-02-01T05:28:12;95532.78;;;1.32;68.93
36192;BME280;22233;42.708;23.360;2023-02-01T05:30:37;95538.69;;;1.62;66.77
36192;BME280;22233;42.708;23.360;2023-02-01T05:33:03;95549.91;;;1.58;67.74
36192;BME280;22233;42.708;23.360;2023-02-01T05:35:29;95551.03;;;1.63;67.45
36192;BME280;22233;42.708;23.360;2023-02-01T05:37:54;95542.44;;;1.88;66.19
36192;BME280;22233;42.708;23.360;2023-02-01T05:40:20;95545.34;;;1.86;66.03
36192;BME280;22233;42.708;23.360;2023-02-01T05:42:46;95551.50;;;1.87;65.75
36192;BME280;22233;42.708;23.360;2023-02-01T05:45:12;95541.81;;;1.80;66.33
36192;BME280;22233;42.708;23.360;2023-02-01T05:47:37;95544.13;;;1.99;64.69
36192;BME280;22233;42.708;23.360;2023-02-01T05:50:03;95551.88;;;1.95;66.09
36192;BME280;22233;42.708;23.360;2023-02-01T05:52:29;95535.84;;;2.00;64.79
36192;BME280;22233;42.708;23.360;2023-02-01T05:54:55;95536.63;;;2.01;65.62
36192;BME280;22233;42.708;23.360;2023-02-01T05:57:20;95529.25;;;2.13;64.32
36192;BME280;22233;42.708;23.360;2023-02-01T05:59:46;95548.63;;;2.26;63.51
36192;BME280;22233;42.708;23.360;2023-02-01T06:02:13;95551.72;;;2.45;63.37
36192;BME280;22233;42.708;23.360;2023-02-01T06:04:38;95549.03;;;2.45;63.93
36192;BME280;22233;42.708;23.360;2023-02-01T06:07:05;95538.16;;;2.24;64.04
36192;BME280;22233;42.708;23.360;2023-02-01T06:09:33;95551.69;;;2.39;63.48
36192;BME280;22233;42.708;23.360;2023-02-01T06:11:59;95532.69;;;2.09;64.00
36192;BME280;22233;42.708;23.360;2023-02-01T06:14:26;95543.63;;;2.02;64.84
36192;BME280;22233;42.708;23.360;2023-02-01T06:16:53;95558.19;;;2.16;64.41
36192;BME280;22233;42.708;23.360;2023-02-01T06:19:18;95530.53;;;2.11;64.71
36192;BME280;22233;42.708;23.360;2023-02-01T06:21:43;95549.47;;;2.31;63.92
36192;BME280;22233;42.708;23.360;2023-02-01T06:24:09;95544.84;;;2.22;64.19
36192;BME280;22233;42.708;23.360;2023-02-01T06:26:35;95548.72;;;2.36;64.18
36192;BME280;22233;42.708;23.360;2023-02-01T06:29:01;95540.97;;;2.45;63.37
36192;BME280;22233;42.708;23.360;2023-02-01T06:31:26;95550.94;;;2.49;63.48
36192;BME280;22233;42.708;23.360;2023-02-01T06:33:52;95543.66;;;2.39;62.82
36192;BME280;22233;42.708;23.360;2023-02-01T06:36:18;95550.19;;;2.59;62.25
36192;BME280;22233;42.708;23.360;2023-02-01T06:38:46;95562.06;;;2.68;61.96
36192;BME280;22233;42.708;23.360;2023-02-01T06:41:11;95550.38;;;2.47;63.07
36192;BME280;22233;42.708;23.360;2023-02-01T06:43:37;95548.31;;;2.59;63.25
36192;BME280;22233;42.708;23.360;2023-02-01T06:46:05;95555.59;;;2.64;63.05
36192;BME280;22233;42.708;23.360;2023-02-01T06:48:31;95558.34;;;2.79;61.72
36192;BME280;22233;42.708;23.360;2023-02-01T06:50:56;95568.56;;;2.83;61.68
36192;BME280;22233;42.708;23.360;2023-02-01T06:53:21;95572.03;;;2.78;62.10
36192;BME280;22233;42.708;23.360;2023-02-01T06:55:58;95575.69;;;2.62;63.32
36192;BME280;22233;42.708;23.360;2023-02-01T06:58:27;95575.53;;;2.78;61.87
36192;BME280;22233;42.708;23.360;2023-02-01T07:00:52;95587.25;;;2.67;61.77
36192;BME280;22233;42.708;23.360;2023-02-01T07:03:19;95582.00;;;2.83;61.32
36192;BME280;22233;42.708;23.360;2023-02-01T07:05:44;95584.06;;;2.70;61.88
36192;BME280;22233;42.708;23.360;2023-02-01T07:08:09;95593.44;;;2.68;61.31
36192;BME280;22233;42.708;23.360;2023-02-01T07:10:35;95596.44;;;2.76;62.31
36192;BME280;22233;42.708;23.360;2023-02-01T07:13:00;95573.09;;;2.77;61.52
36192;BME280;22233;42.708;23.360;2023-02-01T07:15:26;95613.88;;;2.79;61.76
36192;BME280;22233;42.708;23.360;2023-02-01T07:17:54;95614.78;;;2.95;60.95
36192;BME280;22233;42.708;23.360;2023-02-01T07:20:20;95604.00;;;2.85;60.49
36192;BME280;22233;42.708;23.360;2023-02-01T07:22:45;95607.75;;;2.84;61.00
36192;BME280;22233;42.708;23.360;2023-02-01T07:25:10;95609.88;;;2.82;61.56
36192;BME280;22233;42.708;23.360;2023-02-01T07:27:36;95614.84;;;3.00;60.54
36192;BME280;22233;42.708;23.360;2023-02-01T07:30:03;95619.72;;;2.66;61.88
36192;BME280;22233;42.708;23.360;2023-02-01T07:32:29;95604.84;;;2.53;62.33
36192;BME280;22233;42.708;23.360;2023-02-01T07:34:55;95624.06;;;2.77;61.50
36192;BME280;22233;42.708;23.360;2023-02-01T07:37:20;95607.19;;;2.82;60.65
36192;BME280;22233;42.708;23.360;2023-02-01T07:39:46;95617.84;;;2.66;61.47
36192;BME280;22233;42.708;23.360;2023-02-01T07:42:11;95625.91;;;2.71;60.93
36192;BME280;22233;42.708;23.360;2023-02-01T07:44:36;95632.78;;;2.94;60.75
36192;BME280;22233;42.708;23.360;2023-02-01T07:47:02;95625.09;;;3.08;60.56
36192;BME280;22233;42.708;23.360;2023-02-01T07:49:27;95624.53;;;3.11;59.86
36192;BME280;22233;42.708;23.360;2023-02-01T07:51:53;95621.13;;;2.78;60.80
36192;BME280;22233;42.708;23.360;2023-02-01T07:54:18;95639.56;;;3.07;60.21
36192;BME280;22233;42.708;23.360;2023-02-01T07:56:43;95629.31;;;2.99;60.42
36192;BME280;22233;42.708;23.360;2023-02-01T07:59:09;95635.34;;;3.22;59.68
36192;BME280;22233;42.708;23.360;2023-02-01T08:01:36;95648.34;;;3.45;59.57
36192;BME280;22233;42.708;23.360;2023-02-01T08:04:02;95639.00;;;3.00;60.10
36192;BME280;22233;42.708;23.360;2023-02-01T08:06:30;95648.94;;;3.05;59.73
36192;BME280;22233;42.708;23.360;2023-02-01T08:08:56;95655.91;;;3.06;60.15
36192;BME280;22233;42.708;23.360;2023-02-01T08:11:23;95650.28;;;3.07;59.49
36192;BME280;22233;42.708;23.360;2023-02-01T08:13:49;95651.88;;;3.03;60.29
36192;BME280;22233;42.708;23.360;2023-02-01T08:16:16;95638.25;;;3.15;59.58
36192;BME280;22233;42.708;23.360;2023-02-01T08:18:42;95654.47;;;3.30;59.77
36192;BME280;22233;42.708;23.360;2023-02-01T08:21:16;95618.56;;;2.94;59.46
36192;BME280;22233;42.708;23.360;2023-02-01T08:23:42;95655.81;;;3.38;59.07
36192;BME280;22233;42.708;23.360;2023-02-01T08:26:22;95640.88;;;3.57;58.29
36192;BME280;22233;42.708;23.360;2023-02-01T08:28:51;95646.50;;;3.56;58.21
36192;BME280;22233;42.708;23.360;2023-02-01T08:31:18;95653.75;;;3.50;59.11
36192;BME280;22233;42.708;23.360;2023-02-01T08:33:49;95623.59;;;3.33;58.46
36192;BME280;22233;42.708;23.360;2023-02-01T08:36:14;95649.41;;;3.39;58.88
36192;BME280;22233;42.708;23.360;2023-02-01T08:38:40;95635.75;;;3.56;57.94
36192;BME280;22233;42.708;23.360;2023-02-01T08:41:27;95647.34;;;3.56;58.61
36192;BME280;22233;42.708;23.360;2023-02-01T08:43:54;95631.00;;;3.73;58.13
36192;BME280;22233;42.708;23.360;2023-02-01T08:46:21;95648.38;;;3.55;58.26
36192;BME280;22233;42.708;23.360;2023-02-01T08:48:47;95650.69;;;3.31;58.74
36192;BME280;22233;42.708;23.360;2023-02-01T08:51:14;95628.69;;;3.34;58.52
36192;BME280;22233;42.708;23.360;2023-02-01T08:53:41;95637.09;;;3.53;57.36
36192;BME280;22233;42.708;23.360;2023-02-01T08:56:07;95630.72;;;3.70;57.31
36192;BME280;22233;42.708;23.360;2023-02-01T08:58:33;95630.66;;;3.54;57.72
36192;BME280;22233;42.708;23.360;2023-02-01T09:01:10;95635.91;;;3.97;57.12
36192;BME280;22233;42.708;23.360;2023-02-01T09:03:37;95631.78;;;3.74;57.86
36192;BME280;22233;42.708;23.360;2023-02-01T09:06:04;95627.81;;;3.87;56.48
36192;BME280;22233;42.708;23.360;2023-02-01T09:08:30;95649.81;;;3.73;57.01
36192;BME280;22233;42.708;23.360;2023-02-01T09:11:04;95628.50;;;3.46;57.21
36192;BME280;22233;42.708;23.360;2023-02-01T09:13:29;95659.34;;;4.17;56.60
36192;BME280;22233;42.708;23.360;2023-02-01T09:15:55;95653.91;;;3.96;56.67
36192;BME280;22233;42.708;23.360;2023-02-01T09:18:20;95646.44;;;4.19;55.94
36192;BME280;22233;42.708;23.360;2023-02-01T09:20:46;95647.22;;;4.14;55.62
36192;BME280;22233;42.708;23.360;2023-02-01T09:23:11;95651.28;;;4.17;56.15
36192;BME280;22233;42.708;23.360;2023-02-01T09:25:37;95652.34;;;4.16;55.88
36192;BME280;22233;42.708;23.360;2023-02-01T09:28:04;95638.06;;;4.05;56.17
36192;BME280;22233;42.708;23.360;2023-02-01T09:30:31;95648.59;;;4.43;55.12
36192;BME280;22233;42.708;23.360;2023-02-01T09:32:58;95640.66;;;3.69;56.51
36192;BME280;22233;42.708;23.360;2023-02-01T09:35:23;95640.25;;;4.24;55.96
36192;BME280;22233;42.708;23.360;2023-02-01T09:37:48;95645.56;;;3.93;57.01
36192;BME280;22233;42.708;23.360;2023-02-01T09:40:15;95646.94;;;4.00;56.22
36192;BME280;22233;42.708;23.360;2023-02-01T09:45:31;95639.16;;;4.14;56.03
36192;BME280;22233;42.708;23.360;2023-02-01T09:48:04;95618.44;;;4.10;55.26
36192;BME280;22233;42.708;23.360;2023-02-01T09:50:39;95609.63;;;4.35;55.58
36192;BME280;22233;42.708;23.360;2023-02-01T09:53:35;95611.75;;;4.28;55.38
36192;BME280;22233;42.708;23.360;2023-02-01T09:56:06;95587.78;;;4.06;55.63
36192;BME280;22233;42.708;23.360;2023-02-01T09:58:35;95591.84;;;4.03;56.20
36192;BME280;22233;42.708;23.360;2023-02-01T10:01:03;95590.50;;;4.31;55.05
36192;BME280;22233;42.708;23.360;2023-02-01T10:03:32;95606.31;;;3.92;55.89
36192;BME280;22233;42.708;23.360;2023-02-01T10:22:44;95580.28;;;4.59;54.08
36192;BME280;22233;42.708;23.360;2023-02-01T10:28:23;95565.16;;;4.78;53.38
36192;BME280;22233;42.708;23.360;2023-02-01T10:30:52;95554.91;;;5.01;52.82
36192;BME280;22233;42.708;23.360;2023-02-01T10:33:32;95563.66;;;5.37;52.02
36192;BME280;22233;42.708;23.360;2023-02-01T10:36:05;95536.78;;;5.22;52.18
36192;BME280;22233;42.708;23.360;2023-02-01T10:38:35;95556.97;;;5.30;52.11
36192;BME280;22233;42.708;23.360;2023-02-01T10:41:04;95531.66;;;5.26;51.37
36192;BME280;22233;42.708;23.360;2023-02-01T10:43:35;95549.09;;;5.44;50.51
36192;BME280;22233;42.708;23.360;2023-02-01T10:46:01;95548.16;;;5.04;51.12
36192;BME280;22233;42.708;23.360;2023-02-01T10:48:26;95535.41;;;5.25;51.66
36192;BME280;22233;42.708;23.360;2023-02-01T10:51:26;95549.19;;;5.13;51.75
36192;BME280;22233;42.708;23.360;2023-02-01T10:56:23;95523.69;;;4.90;51.74
36192;BME280;22233;42.708;23.360;2023-02-01T10:58:48;95507.81;;;4.93;51.89
36192;BME280;22233;42.708;23.360;2023-02-01T11:01:20;95556.69;;;5.31;51.53
36192;BME280;22233;42.708;23.360;2023-02-01T11:03:54;95535.41;;;5.25;50.97
36192;BME280;22233;42.708;23.360;2023-02-01T11:06:33;95534.41;;;5.15;51.76
36192;BME280;22233;42.708;23.360;2023-02-01T11:16:40;95526.28;;;6.15;49.85
36192;BME280;22233;42.708;23.360;2023-02-01T11:19:06;95536.31;;;6.44;48.57
36192;BME280;22233;42.708;23.360;2023-02-01T11:21:33;95512.69;;;6.30;48.10
36192;BME280;22233;42.708;23.360;2023-02-01T11:24:03;95531.59;;;6.84;47.58
36192;BME280;22233;42.708;23.360;2023-02-01T11:26:31;95531.78;;;6.68;47.84
36192;BME280;22233;42.708;23.360;2023-02-01T11:29:18;95529.88;;;6.39;48.47
36192;BME280;22233;42.708;23.360;2023-02-01T11:31:45;95540.97;;;6.38;47.86
36192;BME280;22233;42.708;23.360;2023-02-01T11:34:22;95513.16;;;6.37;47.68
36192;BME280;22233;42.708;23.360;2023-02-01T11:36:50;95508.75;;;6.47;48.07
36192;BME280;22233;42.708;23.360;2023-02-01T11:39:25;95514.75;;;6.68;47.82
36192;BME280;22233;42.708;23.360;2023-02-01T11:42:12;95498.38;;;6.59;47.88
36192;BME280;22233;42.708;23.360;2023-02-01T11:44:47;95515.13;;;7.09;47.55
36192;BME280;22233;42.708;23.360;2023-02-01T11:47:27;95501.63;;;7.09;47.18
36192;BME280;22233;42.708;23.360;2023-02-01T11:50:01;95506.16;;;7.14;46.26
36192;BME280;22233;42.708;23.360;2023-02-01T11:52:55;95522.03;;;7.20;46.84
36192;BME280;22233;42.708;23.360;2023-02-01T11:58:16;95497.09;;;7.48;46.00
36192;BME280;22233;42.708;23.360;2023-02-01T12:00:55;95498.66;;;7.11;46.83
36192;BME280;22233;42.708;23.360;2023-02-01T12:12:25;95485.00;;;7.21;46.65
36192;BME280;22233;42.708;23.360;2023-02-01T12:30:46;95480.56;;;7.68;46.40
36192;BME280;22233;42.708;23.360;2023-02-01T12:39:18;95469.69;;;7.35;46.92
36192;BME280;22233;42.708;23.360;2023-02-01T12:44:25;95477.00;;;7.54;46.67
36192;BME280;22233;42.708;23.360;2023-02-01T12:46:56;95466.41;;;7.38;46.15
36192;BME280;22233;42.708;23.360;2023-02-01T12:50:03;95498.66;;;7.73;46.07
36192;BME280;22233;42.708;23.360;2023-02-01T12:52:46;95483.00;;;7.51;45.89
36192;BME280;22233;42.708;23.360;2023-02-01T12:55:36;95491.47;;;7.82;46.19
36192;BME280;22233;42.708;23.360;2023-02-01T12:58:27;95483.28;;;7.68;45.37
36192;BME280;22233;42.708;23.360;2023-02-01T13:01:20;95479.34;;;7.60;45.93
36192;BME280;22233;42.708;23.360;2023-02-01T13:04:12;95487.38;;;7.85;44.18
36192;BME280;22233;42.708;23.360;2023-02-01T13:06:45;95475.09;;;7.92;44.99
36192;BME280;22233;42.708;23.360;2023-02-01T13:09:34;95475.50;;;7.67;45.40
36192;BME280;22233;42.708;23.360;2023-02-01T13:12:33;95462.81;;;7.62;45.63
36192;BME280;22233;42.708;23.360;2023-02-01T13:14:58;95472.19;;;7.70;45.45
36192;BME280;22233;42.708;23.360;2023-02-01T13:17:29;95487.84;;;7.73;45.80
36192;BME280;22233;42.708;23.360;2023-02-01T13:20:03;95481.38;;;7.50;45.56
36192;BME280;22233;42.708;23.360;2023-02-01T13:22:34;95468.25;;;7.81;44.53
36192;BME280;22233;42.708;23.360;2023-02-01T13:25:34;95456.69;;;7.75;44.71
36192;BME280;22233;42.708;23.360;2023-02-01T13:28:11;95470.78;;;7.91;44.16
36192;BME280;22233;42.708;23.360;2023-02-01T13:41:52;95471.13;;;7.85;45.56
36192;BME280;22233;42.708;23.360;2023-02-01T13:44:28;95477.75;;;7.59;44.98
36192;BME280;22233;42.708;23.360;2023-02-01T13:46:59;95467.72;;;7.60;45.48
36192;BME280;22233;42.708;23.360;2023-02-01T13:49:31;95468.91;;;7.73;44.86
36192;BME280;22233;42.708;23.360;2023-02-01T13:52:01;95465.81;;;8.31;44.49
36192;BME280;22233;42.708;23.360;2023-02-01T13:54:33;95474.63;;;8.23;43.95
36192;BME280;22233;42.708;23.360;2023-02-01T14:10:55;95469.91;;;7.96;44.48
36192;BME280;22233;42.708;23.360;2023-02-01T14:13:37;95473.03;;;7.84;44.67
36192;BME280;22233;42.708;23.360;2023-02-01T14:21:54;95431.81;;;7.92;45.29
36192;BME280;22233;42.708;23.360;2023-02-01T14:24:23;95463.63;;;7.82;45.14
36192;BME280;22233;42.708;23.360;2023-02-01T14:26:50;95456.25;;;7.87;45.15
36192;BME280;22233;42.708;23.360;2023-02-01T14:37:03;95429.72;;;7.89;44.81
36192;BME280;22233;42.708;23.360;2023-02-01T14:42:26;95440.31;;;8.18;43.46
36192;BME280;22233;42.708;23.360;2023-02-01T14:44:56;95447.34;;;8.19;44.19
36192;BME280;22233;42.708;23.360;2023-02-01T14:47:40;95462.78;;;8.33;43.85
36192;BME280;22233;42.708;23.360;2023-02-01T14:52:37;95465.88;;;8.59;42.91
36192;BME280;22233;42.708;23.360;2023-02-01T14:55:15;95454.16;;;8.17;43.75
36192;BME280;22233;42.708;23.360;2023-02-01T14:57:43;95454.81;;;8.09;44.00
36192;BME280;22233;42.708;23.360;2023-02-01T15:02:38;95461.50;;;7.22;46.01
36192;BME280;22233;42.708;23.360;2023-02-01T15:05:23;95451.06;;;6.91;47.09
36192;BME280;22233;42.708;23.360;2023-02-01T15:07:50;95460.31;;;7.28;46.81
36192;BME280;22233;42.708;23.360;2023-02-01T15:10:20;95469.47;;;6.89;47.52
36192;BME280;22233;42.708;23.360;2023-02-01T15:15:25;95452.56;;;6.78;47.53
36192;BME280;22233;42.708;23.360;2023-02-01T15:17:58;95460.59;;;6.83;47.83
36192;BME280;22233;42.708;23.360;2023-02-01T15:20:32;95458.31;;;6.95;47.98
36192;BME280;22233;42.708;23.360;2023-02-01T15:23:03;95453.69;;;6.96;47.67
36192;BME280;22233;42.708;23.360;2023-02-01T15:25:36;95462.38;;;6.69;48.27
36192;BME280;22233;42.708;23.360;2023-02-01T15:28:02;95446.66;;;6.23;48.82
36192;BME280;22233;42.708;23.360;2023-02-01T15:30:33;95449.91;;;6.49;48.85
36192;BME280;22233;42.708;23.360;2023-02-01T15:41:06;95444.41;;;6.59;48.21
36192;BME280;22233;42.708;23.360;2023-02-01T15:46:22;95446.50;;;6.09;48.89
36192;BME280;22233;42.708;23.360;2023-02-01T15:48:49;95450.53;;;6.11;49.05
36192;BME280;22233;42.708;23.360;2023-02-01T15:51:22;95454.09;;;6.07;49.72
36192;BME280;22233;42.708;23.360;2023-02-01T15:53:56;95461.56;;;6.15;49.76
36192;BME280;22233;42.708;23.360;2023-02-01T15:56:26;95459.88;;;5.90;49.78
36192;BME280;22233;42.708;23.360;2023-02-01T15:58:55;95470.25;;;6.07;49.51
36192;BME280;22233;42.708;23.360;2023-02-01T16:01:23;95446.94;;;5.87;49.92